createdAt,value
2023-04-29T00:01:06.405Z,4.67
2023-04-29T00:03:33.928Z,4.43
2023-04-29T00:06:01.618Z,4.63
2023-04-29T00:08:29.217Z,4.63
2023-04-29T00:10:56.575Z,4.53
2023-04-29T00:13:26.074Z,4.60
2023-04-29T00:15:53.702Z,4.83
2023-04-29T00:18:21.120Z,4.87
2023-04-29T00:20:48.530Z,5.13
2023-04-29T00:23:15.938Z,5.03
2023-04-29T00:25:43.899Z,4.93
2023-04-29T00:28:11.258Z,4.83
2023-04-29T00:30:40.086Z,5.43
2023-04-29T00:33:07.537Z,4.77
2023-04-29T00:35:36.186Z,5.03
2023-04-29T00:38:03.604Z,5.13
2023-04-29T00:40:30.980Z,4.43
2023-04-29T00:42:58.602Z,4.13
2023-04-29T00:45:27.593Z,4.60
2023-04-29T00:47:57.200Z,4.30
2023-04-29T00:50:25.012Z,4.40
2023-04-29T00:52:52.911Z,4.23
2023-04-29T00:55:20.693Z,4.60
2023-04-29T00:57:50.028Z,4.33
2023-04-29T01:00:17.521Z,4.17
2023-04-29T01:02:45.637Z,4.47
2023-04-29T01:05:15.312Z,4.33
2023-04-29T01:07:46.592Z,4.50
2023-04-29T01:10:16.264Z,4.00
2023-04-29T01:12:46.749Z,3.70
2023-04-29T01:15:22.222Z,3.50
2023-04-29T01:17:52.825Z,3.23
2023-04-29T01:20:22.235Z,3.00
2023-04-29T01:22:49.715Z,3.10
2023-04-29T01:25:18.449Z,3.07
2023-04-29T01:28:08.349Z,2.40
2023-04-29T01:30:42.804Z,2.33
2023-04-29T01:33:15.700Z,2.73
2023-04-29T01:35:47.325Z,3.13
2023-04-29T01:38:19.356Z,3.30
2023-04-29T01:40:49.927Z,3.40
2023-04-29T01:43:24.643Z,3.67
2023-04-29T01:45:53.903Z,3.70
2023-04-29T01:48:22.724Z,3.87
2023-04-29T01:50:52.222Z,4.20
2023-04-29T01:53:19.736Z,4.17
2023-04-29T01:55:49.039Z,3.63
2023-04-29T01:58:26.784Z,3.90
2023-04-29T02:00:57.077Z,3.77
2023-04-29T02:03:26.755Z,3.93
2023-04-29T02:05:57.628Z,3.80
2023-04-29T02:08:25.040Z,3.87
2023-04-29T02:10:56.234Z,2.80
2023-04-29T02:13:41.616Z,3.23
2023-04-29T02:16:10.228Z,3.07
2023-04-29T02:18:40.086Z,2.50
2023-04-29T02:21:07.588Z,2.40
2023-04-29T02:23:36.048Z,2.20
2023-04-29T02:26:06.237Z,2.10
2023-04-29T02:28:34.700Z,1.57
2023-04-29T02:31:02.121Z,1.30
2023-04-29T02:33:29.505Z,1.50
2023-04-29T02:35:56.874Z,1.40
2023-04-29T02:38:24.250Z,1.40
2023-04-29T02:40:51.828Z,1.20
2023-04-29T02:43:20.552Z,1.30
2023-04-29T02:45:47.993Z,1.30
2023-04-29T02:48:17.433Z,1.60
2023-04-29T02:50:44.811Z,1.60
2023-04-29T02:53:12.159Z,1.77
2023-04-29T02:55:39.629Z,1.47
2023-04-29T02:58:10.612Z,1.60
2023-04-29T03:00:41.415Z,1.60
2023-04-29T03:03:08.961Z,1.33
2023-04-29T03:05:36.515Z,1.23
2023-04-29T03:08:04.740Z,1.30
2023-04-29T03:10:32.844Z,1.40
2023-04-29T03:13:00.401Z,1.07
2023-04-29T03:15:27.895Z,1.33
2023-04-29T03:17:56.751Z,1.30
2023-04-29T03:20:24.596Z,1.40
2023-04-29T03:22:52.669Z,1.63
2023-04-29T03:25:20.171Z,1.57
2023-04-29T03:27:47.522Z,1.93
2023-04-29T03:30:14.880Z,2.17
2023-04-29T03:32:48.867Z,2.20
2023-04-29T03:35:17.838Z,2.20
2023-04-29T03:38:14.186Z,2.10
2023-04-29T03:40:41.951Z,2.13
2023-04-29T03:43:09.444Z,2.30
2023-04-29T03:45:37.458Z,2.23
2023-04-29T03:48:06.768Z,2.70
2023-04-29T03:50:36.469Z,2.40
2023-04-29T03:53:04.023Z,3.03
2023-04-29T03:55:31.818Z,2.93
2023-04-29T03:57:59.638Z,3.40
2023-04-29T04:00:31.028Z,3.60
2023-04-29T04:03:02.037Z,3.73
2023-04-29T04:05:30.998Z,4.07
2023-04-29T04:08:08.693Z,3.90
2023-04-29T04:10:53.160Z,4.40
2023-04-29T04:13:32.995Z,4.53
2023-04-29T04:16:00.854Z,4.47
2023-04-29T04:18:29.320Z,4.70
2023-04-29T04:20:57.456Z,5.33
2023-04-29T04:23:28.002Z,5.00
2023-04-29T04:25:55.826Z,5.10
2023-04-29T04:28:41.506Z,5.37
2023-04-29T04:31:26.163Z,5.60
2023-04-29T04:33:53.582Z,6.57
2023-04-29T04:36:21.219Z,6.17
2023-04-29T04:38:49.951Z,6.87
2023-04-29T04:41:17.698Z,7.43
2023-04-29T04:43:47.775Z,7.10
2023-04-29T04:46:21.407Z,7.97
2023-04-29T04:48:59.845Z,7.53
2023-04-29T04:51:29.745Z,7.77
2023-04-29T04:53:58.456Z,7.53
2023-04-29T04:56:29.356Z,7.90
2023-04-29T04:58:57.446Z,7.57
2023-04-29T05:01:25.166Z,8.23
2023-04-29T05:03:53.001Z,8.20
2023-04-29T05:06:20.452Z,7.40
2023-04-29T05:08:48.572Z,8.57
2023-04-29T05:11:19.190Z,7.43
2023-04-29T05:13:59.979Z,8.73
2023-04-29T05:16:28.038Z,8.40
2023-04-29T05:18:55.788Z,8.40
2023-04-29T05:21:26.829Z,8.20
2023-04-29T05:23:54.299Z,8.63
2023-04-29T05:26:23.270Z,8.23
2023-04-29T05:28:52.661Z,8.40
2023-04-29T05:31:21.732Z,7.90
2023-04-29T05:33:49.458Z,8.07
2023-04-29T05:36:17.248Z,7.70
2023-04-29T05:38:45.314Z,8.30
2023-04-29T05:41:14.052Z,7.53
2023-04-29T05:43:47.366Z,7.93
2023-04-29T05:46:17.098Z,8.27
2023-04-29T05:48:44.518Z,7.53
2023-04-29T05:51:13.708Z,7.90
2023-04-29T05:53:41.513Z,7.87
2023-04-29T05:56:09.138Z,7.60
2023-04-29T05:58:40.393Z,7.90
2023-04-29T06:01:09.816Z,8.23
2023-04-29T06:03:37.450Z,7.67
2023-04-29T06:06:25.623Z,7.90
2023-04-29T06:09:26.380Z,8.17
2023-04-29T06:11:56.470Z,7.53
2023-04-29T06:14:23.976Z,8.07
2023-04-29T06:16:53.716Z,8.00
2023-04-29T06:19:21.140Z,7.13
2023-04-29T06:21:49.844Z,7.10
2023-04-29T06:24:18.184Z,7.50
2023-04-29T06:26:46.690Z,7.37
2023-04-29T06:29:14.266Z,7.27
2023-04-29T06:31:41.937Z,7.30
2023-04-29T06:34:11.385Z,7.17
2023-04-29T06:36:48.959Z,5.57
2023-04-29T06:39:30.661Z,6.83
2023-04-29T06:42:15.573Z,5.87
2023-04-29T06:44:42.939Z,7.43
2023-04-29T06:47:28.732Z,6.50
2023-04-29T06:50:09.736Z,5.97
2023-04-29T06:52:37.362Z,6.10
2023-04-29T06:55:13.880Z,5.90
2023-04-29T06:57:43.914Z,5.93
2023-04-29T07:00:11.566Z,6.40
2023-04-29T07:02:39.771Z,5.97
2023-04-29T07:05:09.293Z,6.80
2023-04-29T07:07:36.753Z,6.37
2023-04-29T07:10:04.300Z,5.73
2023-04-29T07:12:31.664Z,5.67
2023-04-29T07:14:59.789Z,5.73
2023-04-29T07:17:27.166Z,5.70
2023-04-29T07:19:55.173Z,5.17
2023-04-29T07:22:24.012Z,4.80
2023-04-29T07:24:54.410Z,4.30
2023-04-29T07:27:22.778Z,4.17
2023-04-29T07:29:50.184Z,4.00
2023-04-29T07:32:17.693Z,3.47
2023-04-29T07:34:45.141Z,2.83
2023-04-29T07:37:12.837Z,3.80
2023-04-29T07:39:42.550Z,4.00
2023-04-29T07:42:10.996Z,4.10
2023-04-29T07:44:40.985Z,4.93
2023-04-29T07:47:09.222Z,3.27
2023-04-29T07:49:36.623Z,5.80
2023-04-29T07:52:05.317Z,6.37
2023-04-29T07:54:32.732Z,5.57
2023-04-29T07:57:03.525Z,5.80
2023-04-29T07:59:31.198Z,5.93
2023-04-29T08:01:58.688Z,6.90
2023-04-29T08:04:26.364Z,6.13
2023-04-29T08:07:02.713Z,5.87
2023-04-29T08:09:30.556Z,5.37
2023-04-29T08:11:57.919Z,6.67
2023-04-29T08:14:26.741Z,6.07
2023-04-29T08:16:55.690Z,6.23
2023-04-29T08:19:23.055Z,6.47
2023-04-29T08:21:51.607Z,6.07
2023-04-29T08:24:20.564Z,5.67
2023-04-29T08:26:48.388Z,6.10
2023-04-29T08:29:16.197Z,6.60
2023-04-29T08:31:45.149Z,7.10
2023-04-29T08:34:12.577Z,6.63
2023-04-29T08:36:39.953Z,6.23
2023-04-29T08:39:07.296Z,5.93
2023-04-29T08:41:34.669Z,6.87
2023-04-29T08:44:02.395Z,6.37
2023-04-29T08:46:30.248Z,6.73
2023-04-29T08:48:59.440Z,7.37
2023-04-29T08:51:28.098Z,7.30
2023-04-29T08:53:56.897Z,6.97
2023-04-29T08:56:25.675Z,6.97
2023-04-29T08:58:55.166Z,7.03
2023-04-29T09:01:24.207Z,8.30
2023-04-29T09:03:55.281Z,7.17
2023-04-29T09:06:24.234Z,7.27
2023-04-29T09:08:51.855Z,7.23
2023-04-29T09:11:20.483Z,7.03
2023-04-29T09:13:47.828Z,7.83
2023-04-29T09:16:15.256Z,6.97
2023-04-29T09:18:43.635Z,7.73
2023-04-29T09:21:14.748Z,7.77
2023-04-29T09:23:43.648Z,7.30
2023-04-29T09:26:11.004Z,7.70
2023-04-29T09:28:39.776Z,7.53
2023-04-29T09:31:08.220Z,8.33
2023-04-29T09:33:50.657Z,8.40
2023-04-29T09:36:33.007Z,7.30
2023-04-29T09:39:01.682Z,5.30
2023-04-29T09:41:29.157Z,4.30
2023-04-29T09:44:04.462Z,4.40
2023-04-29T09:46:32.588Z,4.37
2023-04-29T09:49:00.124Z,4.13
2023-04-29T09:51:27.570Z,4.10
2023-04-29T09:53:55.018Z,4.17
2023-04-29T09:56:24.027Z,4.27
2023-04-29T09:58:52.026Z,4.40
2023-04-29T10:01:21.611Z,4.80
2023-04-29T10:03:49.605Z,4.60
2023-04-29T10:06:17.915Z,4.80
2023-04-29T10:08:46.144Z,4.30
2023-04-29T10:11:15.126Z,4.67
2023-04-29T10:13:44.972Z,4.67
2023-04-29T10:16:28.923Z,4.63
2023-04-29T10:18:57.083Z,4.57
2023-04-29T10:21:28.100Z,5.47
2023-04-29T10:23:57.551Z,5.73
2023-04-29T10:26:26.158Z,5.97
2023-04-29T10:28:55.660Z,5.47
2023-04-29T10:31:23.714Z,6.30
2023-04-29T10:33:56.357Z,6.00
2023-04-29T10:36:24.066Z,5.83
2023-04-29T10:38:53.864Z,7.17
2023-04-29T10:41:23.154Z,6.40
2023-04-29T10:43:50.561Z,6.43
2023-04-29T10:46:19.943Z,6.13
2023-04-29T10:48:47.822Z,6.87
2023-04-29T10:51:28.513Z,6.53
2023-04-29T10:54:02.875Z,6.30
2023-04-29T10:56:37.146Z,5.47
2023-04-29T10:59:04.558Z,7.00
2023-04-29T11:01:43.644Z,5.73
2023-04-29T11:04:11.586Z,6.37
2023-04-29T11:06:41.030Z,6.17
2023-04-29T11:09:14.165Z,7.13
2023-04-29T11:11:42.716Z,7.23
2023-04-29T11:14:11.078Z,6.93
2023-04-29T11:16:38.713Z,5.37
2023-04-29T11:19:08.472Z,8.23
2023-04-29T11:21:36.447Z,6.87
2023-04-29T11:24:04.609Z,7.93
2023-04-29T11:26:32.005Z,7.23
2023-04-29T11:28:59.715Z,8.33
2023-04-29T11:31:28.922Z,8.07
2023-04-29T11:33:56.510Z,7.63
2023-04-29T11:36:25.715Z,7.50
2023-04-29T11:38:53.089Z,8.23
2023-04-29T11:41:21.668Z,8.13
2023-04-29T11:43:49.056Z,7.90
2023-04-29T11:46:17.048Z,7.50
2023-04-29T11:48:48.446Z,7.30
2023-04-29T11:51:16.129Z,7.67
2023-04-29T11:53:44.908Z,8.10
2023-04-29T11:56:12.348Z,7.07
2023-04-29T11:58:40.097Z,8.07
2023-04-29T12:01:07.862Z,7.83
2023-04-29T12:03:36.765Z,7.97
2023-04-29T12:06:05.639Z,8.17
2023-04-29T12:08:34.790Z,8.33
2023-04-29T12:11:03.932Z,7.63
2023-04-29T12:13:31.624Z,7.60
2023-04-29T12:15:59.867Z,7.30
2023-04-29T12:18:27.993Z,7.10
2023-04-29T12:20:56.811Z,7.00
2023-04-29T12:23:26.709Z,7.13
2023-04-29T12:25:54.544Z,6.70
2023-04-29T12:28:23.293Z,6.77
2023-04-29T12:30:51.289Z,6.43
2023-04-29T12:33:22.636Z,6.60
2023-04-29T12:35:50.941Z,5.80
2023-04-29T12:38:21.332Z,6.40
2023-04-29T12:40:49.036Z,6.87
2023-04-29T12:43:16.481Z,6.33
2023-04-29T12:45:45.255Z,6.33
2023-04-29T12:48:25.099Z,6.67
2023-04-29T12:50:58.460Z,6.43
2023-04-29T12:53:26.161Z,6.23
2023-04-29T12:55:53.883Z,5.87
2023-04-29T12:58:21.329Z,5.97
2023-04-29T13:00:50.166Z,6.10
2023-04-29T13:03:19.159Z,7.77
2023-04-29T13:05:51.411Z,7.80
2023-04-29T13:08:19.374Z,7.30
2023-04-29T13:10:47.072Z,7.83
2023-04-29T13:13:14.441Z,7.20
2023-04-29T13:15:42.481Z,7.27
2023-04-29T13:18:11.303Z,7.60
2023-04-29T13:20:42.404Z,7.67
2023-04-29T13:23:10.152Z,7.17
2023-04-29T13:25:37.555Z,7.40
2023-04-29T13:28:07.007Z,6.57
2023-04-29T13:30:34.704Z,6.90
2023-04-29T13:33:09.746Z,6.93
2023-04-29T13:35:41.605Z,7.47
2023-04-29T13:38:09.305Z,8.17
2023-04-29T13:40:41.811Z,7.70
2023-04-29T13:43:15.916Z,7.57
2023-04-29T13:45:52.725Z,8.53
2023-04-29T13:48:44.314Z,9.10
2023-04-29T13:54:25.454Z,11.53
2023-04-29T14:03:58.274Z,9.60
2023-04-29T14:06:28.294Z,11.13
2023-04-29T14:08:55.758Z,11.20
2023-04-29T14:11:23.121Z,11.70
2023-04-29T14:13:50.463Z,9.73
2023-04-29T14:16:17.965Z,11.50
2023-04-29T14:18:45.455Z,11.27
2023-04-29T14:21:12.844Z,10.63
2023-04-29T14:23:41.528Z,11.33
2023-04-29T14:26:26.418Z,9.90
2023-04-29T14:28:57.673Z,10.97
2023-04-29T14:31:25.492Z,11.00
2023-04-29T14:33:53.144Z,9.77
2023-04-29T14:36:20.527Z,9.40
2023-04-29T14:38:49.732Z,9.23
2023-04-29T14:41:17.184Z,10.33
2023-04-29T14:43:44.546Z,9.83
2023-04-29T14:46:12.331Z,10.33
2023-04-29T14:48:39.725Z,10.80
2023-04-29T14:51:07.332Z,10.73
2023-04-29T14:53:34.815Z,9.87
2023-04-29T14:56:04.726Z,10.13
2023-04-29T14:58:32.071Z,11.13
2023-04-29T15:04:53.397Z,10.23
2023-04-29T15:07:22.629Z,10.53
2023-04-29T15:09:50.513Z,10.17
2023-04-29T15:12:19.940Z,10.70
2023-04-29T15:14:47.452Z,10.73
2023-04-29T15:17:14.804Z,9.67
2023-04-29T15:19:42.166Z,9.67
2023-04-29T15:22:09.486Z,10.47
2023-04-29T15:24:36.890Z,10.03
2023-04-29T15:27:04.379Z,9.97
2023-04-29T15:29:34.460Z,9.50
2023-04-29T15:32:01.865Z,10.53
2023-04-29T15:34:29.274Z,10.50
2023-04-29T15:36:56.913Z,8.40
2023-04-29T15:39:24.263Z,10.23
2023-04-29T15:41:51.641Z,10.33
2023-04-29T15:44:18.988Z,11.30
2023-04-29T15:46:47.922Z,10.40
2023-04-29T15:49:15.261Z,10.50
2023-04-29T15:51:42.628Z,9.83
2023-04-29T15:54:10.119Z,10.00
2023-04-29T15:56:37.472Z,9.50
2023-04-29T15:59:04.855Z,10.07
2023-04-29T16:01:34.222Z,9.60
2023-04-29T16:04:03.932Z,10.13
2023-04-29T16:06:31.384Z,9.30
2023-04-29T16:08:58.819Z,9.03
2023-04-29T16:11:26.156Z,9.77
2023-04-29T16:13:53.982Z,10.00
2023-04-29T16:16:21.467Z,9.70
2023-04-29T16:18:48.950Z,10.23
2023-04-29T16:21:17.612Z,9.53
2023-04-29T16:23:45.070Z,10.43
2023-04-29T16:26:12.400Z,10.67
2023-04-29T16:28:40.522Z,10.27
2023-04-29T16:31:08.133Z,10.37
2023-04-29T16:33:35.525Z,9.87
2023-04-29T16:36:03.037Z,10.00
2023-04-29T16:38:31.981Z,9.93
2023-04-29T16:40:59.371Z,9.27
2023-04-29T16:43:26.939Z,9.13
2023-04-29T16:45:54.353Z,9.63
2023-04-29T16:48:21.737Z,9.60
2023-04-29T16:50:50.569Z,9.40
2023-04-29T16:53:18.125Z,9.10
2023-04-29T16:55:46.974Z,9.37
2023-04-29T16:58:14.327Z,9.47
2023-04-29T17:00:41.682Z,8.87
2023-04-29T17:03:09.073Z,10.07
2023-04-29T17:05:36.495Z,10.07
2023-04-29T17:08:04.760Z,9.00
2023-04-29T17:10:32.170Z,10.10
2023-04-29T17:13:01.274Z,9.83
2023-04-29T17:15:29.306Z,9.70
2023-04-29T17:17:57.145Z,9.50
2023-04-29T17:20:24.669Z,10.00
2023-04-29T17:22:52.422Z,10.23
2023-04-29T17:25:22.413Z,9.93
2023-04-29T17:27:49.760Z,9.33
2023-04-29T17:30:18.973Z,10.90
2023-04-29T17:32:49.314Z,8.67
2023-04-29T17:35:16.819Z,8.83
2023-04-29T17:37:44.165Z,9.57
2023-04-29T17:40:11.952Z,9.63
2023-04-29T17:42:39.280Z,9.47
2023-04-29T17:45:07.325Z,9.43
2023-04-29T17:47:36.386Z,9.87
2023-04-29T17:50:03.993Z,9.30
2023-04-29T17:52:31.537Z,9.20
2023-04-29T17:54:58.975Z,9.17
2023-04-29T17:57:26.300Z,9.10
2023-04-29T17:59:53.888Z,9.20
2023-04-29T18:02:21.743Z,8.30
2023-04-29T18:04:50.525Z,9.13
2023-04-29T18:07:17.901Z,9.73
2023-04-29T18:09:45.278Z,9.00
2023-04-29T18:12:12.607Z,9.40
2023-04-29T18:14:40.064Z,9.60
2023-04-29T18:17:07.615Z,8.97
2023-04-29T18:19:35.159Z,8.63
2023-04-29T18:22:03.906Z,9.73
2023-04-29T18:24:31.521Z,9.17
2023-04-29T18:26:58.985Z,9.23
2023-04-29T18:29:26.368Z,9.40
2023-04-29T18:31:54.642Z,9.70
2023-04-29T18:34:22.326Z,8.90
2023-04-29T18:36:49.697Z,8.80
2023-04-29T18:39:18.367Z,9.10
2023-04-29T18:41:45.725Z,9.87
2023-04-29T18:44:13.104Z,9.07
2023-04-29T18:46:40.609Z,9.70
2023-04-29T18:49:08.580Z,9.03
2023-04-29T18:51:36.119Z,9.67
2023-04-29T18:54:03.619Z,9.63
2023-04-29T18:56:32.272Z,9.00
2023-04-29T18:58:59.597Z,9.57
2023-04-29T19:01:27.208Z,9.23
2023-04-29T19:03:55.363Z,9.57
2023-04-29T19:06:22.795Z,9.77
2023-04-29T19:08:50.186Z,9.77
2023-04-29T19:11:17.518Z,9.53
2023-04-29T19:13:46.597Z,10.07
2023-04-29T19:16:14.040Z,9.77
2023-04-29T19:18:41.489Z,10.23
2023-04-29T19:21:10.079Z,9.33
2023-04-29T19:23:37.436Z,9.53
2023-04-29T19:26:04.783Z,9.50
2023-04-29T19:28:32.126Z,9.97
2023-04-29T19:31:01.017Z,9.93
2023-04-29T19:33:28.521Z,10.27
2023-04-29T19:35:56.150Z,10.47
2023-04-29T19:38:23.766Z,9.70
2023-04-29T19:40:51.113Z,11.17
2023-04-29T19:43:18.498Z,10.20
2023-04-29T19:45:45.976Z,9.80
2023-04-29T19:48:14.723Z,9.77
2023-04-29T19:50:42.110Z,10.30
2023-04-29T19:53:09.562Z,10.30
2023-04-29T19:55:38.972Z,9.90
2023-04-29T19:58:06.345Z,11.00
2023-04-29T20:00:34.322Z,10.17
2023-04-29T20:03:01.892Z,9.93
2023-04-29T20:05:30.625Z,10.63
2023-04-29T20:07:58.312Z,9.87
2023-04-29T20:10:28.129Z,10.23
2023-04-29T20:12:57.098Z,9.50
2023-04-29T20:15:24.432Z,9.93
2023-04-29T20:17:51.989Z,9.70
2023-04-29T20:20:19.341Z,10.10
2023-04-29T20:22:48.004Z,10.13
2023-04-29T20:25:15.347Z,10.30
2023-04-29T20:27:43.043Z,9.67
2023-04-29T20:30:10.977Z,10.00
2023-04-29T20:32:38.574Z,9.67
2023-04-29T20:35:06.730Z,10.20
2023-04-29T20:37:34.206Z,11.33
2023-04-29T20:40:02.994Z,10.33
2023-04-29T20:42:30.349Z,11.07
2023-04-29T20:44:57.694Z,10.50
2023-04-29T20:47:25.015Z,10.87
2023-04-29T20:49:52.484Z,10.37
2023-04-29T20:52:20.303Z,11.13
2023-04-29T20:54:47.863Z,11.63
2023-04-29T20:57:16.928Z,11.73
2023-04-29T20:59:44.283Z,10.07
2023-04-29T21:02:12.115Z,10.97
2023-04-29T21:04:39.794Z,11.70
2023-04-29T21:07:07.570Z,11.17
2023-04-29T21:09:35.717Z,11.30
2023-04-29T21:12:05.273Z,11.63
2023-04-29T21:14:34.010Z,11.00
2023-04-29T21:17:01.357Z,11.30
2023-04-29T21:19:28.806Z,12.07
2023-04-29T21:21:56.610Z,11.20
2023-04-29T21:24:24.148Z,10.57
2023-04-29T21:26:51.730Z,11.87
2023-04-29T21:29:22.641Z,11.50
2023-04-29T21:31:51.435Z,11.97
2023-04-29T21:34:18.885Z,10.87
2023-04-29T21:36:46.212Z,12.00
2023-04-29T21:39:13.882Z,11.70
2023-04-29T21:41:42.288Z,11.27
2023-04-29T21:44:09.664Z,10.83
2023-04-29T21:46:38.862Z,11.60
2023-04-29T21:49:07.555Z,10.47
2023-04-29T21:51:35.492Z,11.27
2023-04-29T21:54:05.912Z,10.73
2023-04-29T21:56:33.363Z,10.77
2023-04-29T21:59:00.880Z,11.47
2023-04-29T22:01:40.261Z,11.23
2023-04-29T22:04:08.947Z,10.60
2023-04-29T22:06:36.792Z,11.77
2023-04-29T22:09:04.762Z,11.57
2023-04-29T22:11:32.096Z,11.73
2023-04-29T22:13:59.468Z,12.00
2023-04-29T22:16:26.850Z,11.33
2023-04-29T22:18:54.621Z,11.13
2023-04-29T22:21:23.278Z,11.20
2023-04-29T22:23:50.667Z,11.33
2023-04-29T22:26:18.458Z,11.60
2023-04-29T22:28:46.113Z,11.50
2023-04-29T22:31:13.466Z,11.97
2023-04-29T22:33:40.838Z,11.00
2023-04-29T22:36:08.771Z,10.93
2023-04-29T22:38:38.833Z,11.90
2023-04-29T22:41:07.190Z,12.50
2023-04-29T22:43:34.526Z,11.07
2023-04-29T22:46:02.045Z,11.53
2023-04-29T22:48:29.413Z,11.00
2023-04-29T22:50:59.075Z,11.77
2023-04-29T22:53:26.439Z,12.17
2023-04-29T22:55:55.798Z,11.27
2023-04-29T22:58:24.580Z,12.07
2023-04-29T23:00:52.439Z,11.57
2023-04-29T23:03:19.904Z,11.97
2023-04-29T23:05:47.729Z,12.13
2023-04-29T23:08:15.160Z,11.63
2023-04-29T23:10:42.500Z,12.17
2023-04-29T23:13:12.825Z,11.63
2023-04-29T23:15:41.222Z,12.70
2023-04-29T23:18:08.672Z,12.40
2023-04-29T23:20:36.131Z,11.80
2023-04-29T23:23:03.642Z,13.13
2023-04-29T23:25:31.042Z,12.73
2023-04-29T23:27:58.429Z,12.57
2023-04-29T23:30:27.123Z,12.83
2023-04-29T23:32:54.580Z,12.93
2023-04-29T23:35:22.202Z,12.17
2023-04-29T23:37:49.549Z,13.07
2023-04-29T23:40:17.001Z,11.83
2023-04-29T23:42:44.358Z,12.07
2023-04-29T23:45:11.729Z,11.67
2023-04-29T23:47:40.592Z,12.33
2023-04-29T23:50:08.470Z,12.27
2023-04-29T23:52:35.822Z,11.57
2023-04-29T23:55:03.727Z,12.00
2023-04-29T23:57:31.717Z,12.33
2023-04-29T23:59:59.553Z,11.83
